createdAt,value
2023-03-05T00:02:07.419Z,49.78
2023-03-05T00:04:33.852Z,48.62
2023-03-05T00:07:00.223Z,49.26
2023-03-05T00:09:26.604Z,49.54
2023-03-05T00:11:52.989Z,49.21
2023-03-05T00:14:19.370Z,49.26
2023-03-05T00:16:45.734Z,47.73
2023-03-05T00:19:12.163Z,48.68
2023-03-05T00:21:38.550Z,46.81
2023-03-05T00:24:04.991Z,47.14
2023-03-05T00:26:31.414Z,47.36
2023-03-05T00:28:57.807Z,47.45
2023-03-05T00:31:24.236Z,47.52
2023-03-05T00:33:50.666Z,47.86
2023-03-05T00:36:17.043Z,48.35
2023-03-05T00:38:43.436Z,48.73
2023-03-05T00:41:09.808Z,48.41
2023-03-05T00:43:36.338Z,48.97
2023-03-05T00:46:02.772Z,49.05
2023-03-05T00:48:29.166Z,48.48
2023-03-05T00:50:55.541Z,48.53
2023-03-05T00:53:21.957Z,49.18
2023-03-05T00:55:48.345Z,49.24
2023-03-05T00:58:14.792Z,48.43
2023-03-05T01:00:41.253Z,49.19
2023-03-05T01:03:07.712Z,49.22
2023-03-05T01:05:34.167Z,49.56
2023-03-05T01:08:00.602Z,49.62
2023-03-05T01:10:27.000Z,49.85
2023-03-05T01:12:53.385Z,49.63
2023-03-05T01:15:19.826Z,49.70
2023-03-05T01:17:46.244Z,49.89
2023-03-05T01:20:12.613Z,50.61
2023-03-05T01:22:38.991Z,50.20
2023-03-05T01:25:05.360Z,49.94
2023-03-05T01:27:31.764Z,49.88
2023-03-05T01:29:58.166Z,50.13
2023-03-05T01:32:24.607Z,49.60
2023-03-05T01:34:50.981Z,49.34
2023-03-05T01:37:17.333Z,49.44
2023-03-05T01:39:43.732Z,49.51
2023-03-05T01:42:10.227Z,49.66
2023-03-05T01:44:36.607Z,49.43
2023-03-05T01:47:02.958Z,50.14
2023-03-05T01:49:29.431Z,50.31
2023-03-05T01:51:55.823Z,50.02
2023-03-05T01:54:22.176Z,50.29
2023-03-05T01:56:48.570Z,49.72
2023-03-05T01:59:14.954Z,50.12
2023-03-05T02:01:41.360Z,50.34
2023-03-05T02:04:07.823Z,50.74
2023-03-05T02:06:34.238Z,50.60
2023-03-05T02:09:00.625Z,50.87
2023-03-05T02:11:27.025Z,50.83
2023-03-05T02:13:53.409Z,50.80
2023-03-05T02:16:19.836Z,50.80
2023-03-05T02:18:46.222Z,51.31
2023-03-05T02:21:12.597Z,50.82
2023-03-05T02:23:38.991Z,49.99
2023-03-05T02:26:05.361Z,50.27
2023-03-05T02:28:31.723Z,49.81
2023-03-05T02:30:58.193Z,49.37
2023-03-05T02:33:24.659Z,49.62
2023-03-05T02:35:51.073Z,49.96
2023-03-05T02:38:17.484Z,50.22
2023-03-05T02:40:43.867Z,49.82
2023-03-05T02:43:10.304Z,50.10
2023-03-05T02:45:36.721Z,50.52
2023-03-05T02:48:03.121Z,50.69
2023-03-05T02:50:29.509Z,50.96
2023-03-05T02:52:55.891Z,50.69
2023-03-05T02:55:22.317Z,51.21
2023-03-05T02:57:48.721Z,51.01
2023-03-05T03:00:15.145Z,51.71
2023-03-05T03:02:41.537Z,51.52
2023-03-05T03:05:07.946Z,51.36
2023-03-05T03:07:34.358Z,51.29
2023-03-05T03:10:00.765Z,52.11
2023-03-05T03:12:27.148Z,52.59
2023-03-05T03:14:53.516Z,52.02
2023-03-05T03:17:19.936Z,52.26
2023-03-05T03:19:46.313Z,52.64
2023-03-05T03:22:12.699Z,52.83
2023-03-05T03:24:39.104Z,52.94
2023-03-05T03:27:05.463Z,53.07
2023-03-05T03:29:31.857Z,52.96
2023-03-05T03:31:58.280Z,53.30
2023-03-05T03:34:24.703Z,53.28
2023-03-05T03:36:51.104Z,53.32
2023-03-05T03:39:17.504Z,53.94
2023-03-05T03:41:43.879Z,53.34
2023-03-05T03:44:10.307Z,53.95
2023-03-05T03:46:36.708Z,53.47
2023-03-05T03:49:03.117Z,53.68
2023-03-05T03:51:29.520Z,53.94
2023-03-05T03:53:55.912Z,54.07
2023-03-05T03:56:22.271Z,54.17
2023-03-05T03:58:48.689Z,54.44
2023-03-05T04:01:15.072Z,54.66
2023-03-05T04:03:41.479Z,54.56
2023-03-05T04:06:07.841Z,54.40
2023-03-05T04:08:34.243Z,53.96
2023-03-05T04:11:00.600Z,54.10
2023-03-05T04:13:26.959Z,54.51
2023-03-05T04:15:53.373Z,54.25
2023-03-05T04:18:19.765Z,54.54
2023-03-05T04:20:46.221Z,55.02
2023-03-05T04:23:12.588Z,54.73
2023-03-05T04:25:39.025Z,55.41
2023-03-05T04:28:05.381Z,54.96
2023-03-05T04:30:31.798Z,55.45
2023-03-05T04:32:58.193Z,55.77
2023-03-05T04:35:24.585Z,55.59
2023-03-05T04:37:51.000Z,55.96
2023-03-05T04:40:17.369Z,56.13
2023-03-05T04:42:43.751Z,56.53
2023-03-05T04:45:10.135Z,56.71
2023-03-05T04:47:36.502Z,57.08
2023-03-05T04:50:02.897Z,56.54
2023-03-05T04:52:29.279Z,57.31
2023-03-05T04:54:55.669Z,57.09
2023-03-05T04:57:23.190Z,57.18
2023-03-05T04:59:50.472Z,56.82
2023-03-05T05:02:16.844Z,57.25
2023-03-05T05:04:43.254Z,57.74
2023-03-05T05:07:09.633Z,57.41
2023-03-05T05:09:36.030Z,57.44
2023-03-05T05:12:02.446Z,57.66
2023-03-05T05:14:28.883Z,57.73
2023-03-05T05:16:55.274Z,57.25
2023-03-05T05:19:21.736Z,57.63
2023-03-05T05:21:48.143Z,57.17
2023-03-05T05:24:14.530Z,57.94
2023-03-05T05:26:40.903Z,57.50
2023-03-05T05:29:07.334Z,57.34
2023-03-05T05:31:33.719Z,57.10
2023-03-05T05:34:00.222Z,57.82
2023-03-05T05:36:26.590Z,57.73
2023-03-05T05:38:52.956Z,57.64
2023-03-05T05:41:19.340Z,57.70
2023-03-05T05:43:45.786Z,58.24
2023-03-05T05:46:12.273Z,58.04
2023-03-05T05:48:38.762Z,58.33
2023-03-05T05:51:05.201Z,58.59
2023-03-05T05:53:31.583Z,58.47
2023-03-05T05:55:57.960Z,58.70
2023-03-05T05:58:24.405Z,58.97
2023-03-05T06:00:50.811Z,59.00
2023-03-05T06:03:17.314Z,59.52
2023-03-05T06:05:43.894Z,59.89
2023-03-05T06:08:10.297Z,59.86
2023-03-05T06:10:36.675Z,59.98
2023-03-05T06:13:03.084Z,59.51
2023-03-05T06:15:29.482Z,59.44
2023-03-05T06:17:55.863Z,59.34
2023-03-05T06:20:22.318Z,59.00
2023-03-05T06:22:48.732Z,58.96
2023-03-05T06:25:15.221Z,58.69
2023-03-05T06:27:41.597Z,58.61
2023-03-05T06:30:08.007Z,58.55
2023-03-05T06:32:34.460Z,58.31
2023-03-05T06:35:00.922Z,58.59
2023-03-05T06:37:27.284Z,58.50
2023-03-05T06:39:53.668Z,58.44
2023-03-05T06:42:20.033Z,58.62
2023-03-05T06:44:48.197Z,58.74
2023-03-05T06:47:14.687Z,58.26
2023-03-05T06:49:41.092Z,58.56
2023-03-05T06:52:07.475Z,58.15
2023-03-05T06:54:33.830Z,58.49
2023-03-05T06:57:00.213Z,58.19
2023-03-05T06:59:26.568Z,58.47
2023-03-05T07:01:52.962Z,58.43
2023-03-05T07:04:19.373Z,58.42
2023-03-05T07:06:45.769Z,58.21
2023-03-05T07:09:12.151Z,58.40
2023-03-05T07:11:38.535Z,57.71
2023-03-05T07:14:04.958Z,58.06
2023-03-05T07:16:31.325Z,57.94
2023-03-05T07:18:57.806Z,57.45
2023-03-05T07:21:24.189Z,57.38
2023-03-05T07:23:50.651Z,57.94
2023-03-05T07:26:17.039Z,57.77
2023-03-05T07:28:43.428Z,57.82
2023-03-05T07:31:09.903Z,58.25
2023-03-05T07:33:36.307Z,57.97
2023-03-05T07:36:02.702Z,58.96
2023-03-05T07:38:29.091Z,58.67
2023-03-05T07:40:55.487Z,58.99
2023-03-05T07:43:21.868Z,70.44
2023-03-05T07:45:48.289Z,56.92
2023-03-05T07:48:14.775Z,56.47
2023-03-05T07:50:41.201Z,56.95
2023-03-05T07:53:07.614Z,56.72
2023-03-05T07:55:34.067Z,57.08
2023-03-05T07:58:00.510Z,56.76
2023-03-05T08:00:27.041Z,57.03
2023-03-05T08:02:53.557Z,56.84
2023-03-05T08:05:19.965Z,56.94
2023-03-05T08:07:47.385Z,56.81
2023-03-05T08:10:13.759Z,56.33
2023-03-05T08:12:40.171Z,56.34
2023-03-05T08:15:06.551Z,56.27
2023-03-05T08:17:32.956Z,55.73
2023-03-05T08:19:59.330Z,57.07
2023-03-05T08:22:25.732Z,58.35
2023-03-05T08:24:52.108Z,59.82
2023-03-05T08:27:18.543Z,60.59
2023-03-05T08:29:45.013Z,61.73
2023-03-05T08:32:11.430Z,62.04
2023-03-05T08:34:37.862Z,61.87
2023-03-05T08:37:04.241Z,61.19
2023-03-05T08:39:30.669Z,61.19
2023-03-05T08:41:57.057Z,60.79
2023-03-05T08:44:23.423Z,60.49
2023-03-05T08:46:49.903Z,59.76
2023-03-05T08:49:16.432Z,59.58
2023-03-05T08:51:42.877Z,59.06
2023-03-05T08:54:09.264Z,59.10
2023-03-05T08:56:35.736Z,58.82
2023-03-05T08:59:02.150Z,58.73
2023-03-05T09:01:28.545Z,58.16
2023-03-05T09:03:54.961Z,57.86
2023-03-05T09:06:21.337Z,57.74
2023-03-05T09:08:47.730Z,57.16
2023-03-05T09:11:14.190Z,56.96
2023-03-05T09:13:40.638Z,56.98
2023-03-05T09:16:07.265Z,57.00
2023-03-05T09:18:33.682Z,56.11
2023-03-05T09:21:00.077Z,56.68
2023-03-05T09:23:26.504Z,56.73
2023-03-05T09:25:52.873Z,55.47
2023-03-05T09:28:19.373Z,55.46
2023-03-05T09:30:46.484Z,55.66
2023-03-05T09:33:12.867Z,55.48
2023-03-05T09:35:39.291Z,55.62
2023-03-05T09:38:05.710Z,54.83
2023-03-05T09:40:32.108Z,54.02
2023-03-05T09:42:58.511Z,54.13
2023-03-05T09:45:24.929Z,53.97
2023-03-05T09:47:51.291Z,55.35
2023-03-05T09:50:17.689Z,59.16
2023-03-05T09:52:45.821Z,59.16
2023-03-05T09:55:12.201Z,58.75
2023-03-05T09:57:38.585Z,57.75
2023-03-05T10:00:04.970Z,57.18
2023-03-05T10:02:31.342Z,58.48
2023-03-05T10:04:57.742Z,59.33
2023-03-05T10:07:24.100Z,59.42
2023-03-05T10:09:50.496Z,59.94
2023-03-05T10:12:16.929Z,59.16
2023-03-05T10:14:43.317Z,58.89
2023-03-05T10:17:09.750Z,59.05
2023-03-05T10:19:36.224Z,58.59
2023-03-05T10:22:02.611Z,57.86
2023-03-05T10:24:29.036Z,57.12
2023-03-05T10:26:55.417Z,57.50
2023-03-05T10:29:21.862Z,55.90
2023-03-05T10:31:48.269Z,56.08
2023-03-05T10:34:14.655Z,55.43
2023-03-05T10:36:41.136Z,54.56
2023-03-05T10:39:07.716Z,54.58
2023-03-05T10:41:34.079Z,54.69
2023-03-05T10:44:00.446Z,54.64
2023-03-05T10:46:27.023Z,55.02
2023-03-05T10:48:53.386Z,55.32
2023-03-05T10:51:19.799Z,54.77
2023-03-05T10:53:46.179Z,55.02
2023-03-05T10:56:12.609Z,55.22
2023-03-05T10:58:38.976Z,56.18
2023-03-05T11:01:05.462Z,55.51
2023-03-05T11:03:31.869Z,55.05
2023-03-05T11:05:58.225Z,55.41
2023-03-05T11:08:24.645Z,55.14
2023-03-05T11:10:51.042Z,55.02
2023-03-05T11:13:17.429Z,54.06
2023-03-05T11:15:43.874Z,53.76
2023-03-05T11:18:10.290Z,54.29
2023-03-05T11:20:36.698Z,54.50
2023-03-05T11:23:03.076Z,54.68
2023-03-05T11:25:29.541Z,55.40
2023-03-05T11:27:55.900Z,54.62
2023-03-05T11:30:22.296Z,54.98
2023-03-05T11:32:48.701Z,54.80
2023-03-05T11:35:15.118Z,54.36
2023-03-05T11:37:41.550Z,54.25
2023-03-05T11:40:07.961Z,53.85
2023-03-05T11:42:34.417Z,54.16
2023-03-05T11:45:00.816Z,53.05
2023-03-05T11:47:27.263Z,52.16
2023-03-05T11:49:53.637Z,54.80
2023-03-05T11:52:20.066Z,54.01
2023-03-05T11:54:46.432Z,52.76
2023-03-05T11:57:12.821Z,53.52
2023-03-05T11:59:39.237Z,53.36
2023-03-05T12:02:05.607Z,51.74
2023-03-05T12:04:33.035Z,54.20
2023-03-05T12:06:59.420Z,52.89
2023-03-05T12:09:25.802Z,51.61
2023-03-05T12:11:52.194Z,53.36
2023-03-05T12:14:18.582Z,52.99
2023-03-05T12:16:45.229Z,52.74
2023-03-05T12:19:11.632Z,52.17
2023-03-05T12:21:38.013Z,51.43
2023-03-05T12:24:04.396Z,53.67
2023-03-05T12:26:30.798Z,51.33
2023-03-05T12:28:57.181Z,51.93
2023-03-05T12:31:23.707Z,50.62
2023-03-05T12:33:50.110Z,50.82
2023-03-05T12:36:16.515Z,50.95
2023-03-05T12:38:42.911Z,51.83
2023-03-05T12:41:09.323Z,51.74
2023-03-05T12:43:35.714Z,51.05
2023-03-05T12:46:02.075Z,50.96
2023-03-05T12:48:28.526Z,47.84
2023-03-05T12:50:54.901Z,46.81
2023-03-05T12:53:21.304Z,46.31
2023-03-05T12:55:47.695Z,48.10
2023-03-05T12:58:14.059Z,50.00
2023-03-05T13:00:40.500Z,48.12
2023-03-05T13:03:06.959Z,50.11
2023-03-05T13:05:33.400Z,49.38
2023-03-05T13:07:59.756Z,49.48
2023-03-05T13:10:26.121Z,50.06
2023-03-05T13:12:52.557Z,48.00
2023-03-05T13:15:18.931Z,47.11
2023-03-05T13:17:45.469Z,46.64
2023-03-05T13:20:11.919Z,46.46
2023-03-05T13:22:38.350Z,49.39
2023-03-05T13:25:04.824Z,47.64
2023-03-05T13:27:31.204Z,46.81
2023-03-05T13:29:57.571Z,46.76
2023-03-05T13:32:23.985Z,45.96
2023-03-05T13:34:50.405Z,45.78
2023-03-05T13:37:16.861Z,46.80
2023-03-05T13:39:43.242Z,45.69
2023-03-05T13:42:09.603Z,45.13
2023-03-05T13:44:36.239Z,44.10
2023-03-05T13:47:02.742Z,45.83
2023-03-05T13:49:29.103Z,45.24
2023-03-05T13:51:55.490Z,45.99
2023-03-05T13:54:22.933Z,47.31
2023-03-05T13:56:49.303Z,46.86
2023-03-05T13:59:15.777Z,46.23
2023-03-05T14:01:42.173Z,49.18
2023-03-05T14:04:08.615Z,46.01
2023-03-05T14:06:35.028Z,45.41
2023-03-05T14:09:01.474Z,43.99
2023-03-05T14:11:27.868Z,43.11
2023-03-05T14:13:54.225Z,42.66
2023-03-05T14:16:20.593Z,42.02
2023-03-05T14:18:47.057Z,42.32
2023-03-05T14:21:13.472Z,42.60
2023-03-05T14:23:39.838Z,42.67
2023-03-05T14:26:07.357Z,42.67
2023-03-05T14:28:33.778Z,41.75
2023-03-05T14:31:00.201Z,40.93
2023-03-05T14:33:26.623Z,41.56
2023-03-05T14:35:53.076Z,40.74
2023-03-05T14:38:19.577Z,41.85
2023-03-05T14:40:45.976Z,40.97
2023-03-05T14:43:12.368Z,41.28
2023-03-05T14:45:38.787Z,41.86
2023-03-05T14:48:05.194Z,41.35
2023-03-05T14:50:31.579Z,40.41
2023-03-05T14:52:58.017Z,40.65
2023-03-05T14:55:24.385Z,40.35
2023-03-05T14:57:50.813Z,39.07
2023-03-05T15:00:17.192Z,40.01
2023-03-05T15:02:43.688Z,38.24
2023-03-05T15:05:10.147Z,38.03
2023-03-05T15:07:36.569Z,37.77
2023-03-05T15:10:03.013Z,37.21
2023-03-05T15:12:29.400Z,38.12
2023-03-05T15:14:55.766Z,37.25
2023-03-05T15:17:22.146Z,37.74
2023-03-05T15:19:48.569Z,37.13
2023-03-05T15:22:14.961Z,37.53
2023-03-05T15:24:41.333Z,36.99
2023-03-05T15:27:07.716Z,37.85
2023-03-05T15:29:34.061Z,38.30
2023-03-05T15:32:00.515Z,38.67
2023-03-05T15:34:26.904Z,38.02
2023-03-05T15:36:53.311Z,36.57
2023-03-05T15:39:19.715Z,35.70
2023-03-05T15:41:46.099Z,34.65
2023-03-05T15:44:12.472Z,34.96
2023-03-05T15:46:38.869Z,34.81
2023-03-05T15:49:05.276Z,34.08
2023-03-05T15:51:31.660Z,34.38
2023-03-05T15:53:58.088Z,33.04
2023-03-05T15:56:24.466Z,33.82
2023-03-05T15:58:50.882Z,33.75
2023-03-05T16:01:17.347Z,33.68
2023-03-05T16:03:43.749Z,33.96
2023-03-05T16:06:10.163Z,33.99
2023-03-05T16:08:36.523Z,35.56
2023-03-05T16:11:02.918Z,36.66
2023-03-05T16:13:29.320Z,36.55
2023-03-05T16:15:55.731Z,36.53
2023-03-05T16:18:22.114Z,34.79
2023-03-05T16:20:48.480Z,36.30
2023-03-05T16:23:14.901Z,35.81
2023-03-05T16:25:41.287Z,36.68
2023-03-05T16:28:07.661Z,35.21
2023-03-05T16:30:34.026Z,34.30
2023-03-05T16:33:00.418Z,34.90
2023-03-05T16:35:26.852Z,34.82
2023-03-05T16:37:53.232Z,35.55
2023-03-05T16:40:19.622Z,35.65
2023-03-05T16:42:46.009Z,36.66
2023-03-05T16:45:12.409Z,36.44
2023-03-05T16:47:38.887Z,37.31
2023-03-05T16:50:05.271Z,38.47
2023-03-05T16:52:31.651Z,38.26
2023-03-05T16:54:58.080Z,40.14
2023-03-05T16:57:24.486Z,41.36
2023-03-05T16:59:50.874Z,43.89
2023-03-05T17:02:17.315Z,43.72
2023-03-05T17:04:43.684Z,44.11
2023-03-05T17:07:10.042Z,44.79
2023-03-05T17:09:36.422Z,44.43
2023-03-05T17:12:02.858Z,46.58
2023-03-05T17:14:29.285Z,48.33
2023-03-05T17:16:55.677Z,48.45
2023-03-05T17:19:22.093Z,49.08
2023-03-05T17:21:48.478Z,49.94
2023-03-05T17:24:14.849Z,50.03
2023-03-05T17:26:41.250Z,50.22
2023-03-05T17:29:07.662Z,50.87
2023-03-05T17:31:34.132Z,51.07
2023-03-05T17:34:00.564Z,51.57
2023-03-05T17:36:26.966Z,51.50
2023-03-05T17:38:53.349Z,51.87
2023-03-05T17:41:19.734Z,51.43
2023-03-05T17:43:46.119Z,51.25
2023-03-05T17:46:12.508Z,50.82
2023-03-05T17:48:38.891Z,50.21
2023-03-05T17:51:05.289Z,50.36
2023-03-05T17:53:31.706Z,50.34
2023-03-05T17:55:58.090Z,50.26
2023-03-05T17:58:24.502Z,50.25
2023-03-05T18:00:50.961Z,50.44
2023-03-05T18:03:17.353Z,50.25
2023-03-05T18:05:43.757Z,50.69
2023-03-05T18:08:10.145Z,50.35
2023-03-05T18:10:36.587Z,49.89
2023-03-05T18:13:02.970Z,49.24
2023-03-05T18:15:29.412Z,49.68
2023-03-05T18:17:55.803Z,49.98
2023-03-05T18:20:22.204Z,50.26
2023-03-05T18:22:48.610Z,50.46
2023-03-05T18:25:14.993Z,50.42
2023-03-05T18:27:41.415Z,50.60
2023-03-05T18:30:07.840Z,50.09
2023-03-05T18:32:34.246Z,50.48
2023-03-05T18:35:00.712Z,50.49
2023-03-05T18:37:27.066Z,51.18
2023-03-05T18:39:53.465Z,50.86
2023-03-05T18:42:19.820Z,49.89
2023-03-05T18:44:46.204Z,49.79
2023-03-05T18:47:13.595Z,49.82
2023-03-05T18:49:39.978Z,49.84
2023-03-05T18:52:06.364Z,50.03
2023-03-05T18:54:32.724Z,50.14
2023-03-05T18:56:59.109Z,49.70
2023-03-05T18:59:25.545Z,49.60
2023-03-05T19:01:51.945Z,50.44
2023-03-05T19:04:18.354Z,50.35
2023-03-05T19:06:45.821Z,50.07
2023-03-05T19:09:12.203Z,50.20
2023-03-05T19:11:38.654Z,50.53
2023-03-05T19:14:05.067Z,50.66
2023-03-05T19:16:31.468Z,51.37
2023-03-05T19:18:57.894Z,54.83
2023-03-05T19:21:24.283Z,57.20
2023-03-05T19:23:50.694Z,55.24
2023-03-05T19:26:17.107Z,55.29
2023-03-05T19:28:43.541Z,54.48
2023-03-05T19:31:09.972Z,54.98
2023-03-05T19:33:36.408Z,56.75
2023-03-05T19:36:02.839Z,56.68
2023-03-05T19:38:29.231Z,55.79
2023-03-05T19:40:55.653Z,56.59
2023-03-05T19:43:22.037Z,56.80
2023-03-05T19:45:48.610Z,56.65
2023-03-05T19:48:15.005Z,56.30
2023-03-05T19:50:41.485Z,56.41
2023-03-05T19:53:07.914Z,56.15
2023-03-05T19:55:34.460Z,55.65
2023-03-05T19:58:00.898Z,56.08
2023-03-05T20:00:27.483Z,55.75
2023-03-05T20:02:53.918Z,55.71
2023-03-05T20:05:20.476Z,55.31
2023-03-05T20:07:46.882Z,55.05
2023-03-05T20:10:13.365Z,54.72
2023-03-05T20:12:39.856Z,54.74
2023-03-05T20:15:06.309Z,54.52
2023-03-05T20:17:32.953Z,54.86
2023-03-05T20:19:59.386Z,55.11
2023-03-05T20:22:25.905Z,54.97
2023-03-05T20:24:52.374Z,55.63
2023-03-05T20:27:18.790Z,55.37
2023-03-05T20:29:45.377Z,55.07
2023-03-05T20:32:11.862Z,58.80
2023-03-05T20:34:38.605Z,58.52
2023-03-05T20:37:05.067Z,57.59
2023-03-05T20:39:33.879Z,57.75
2023-03-05T20:42:00.319Z,57.73
2023-03-05T20:44:26.813Z,57.98
2023-03-05T20:46:53.953Z,57.89
2023-03-05T20:49:20.389Z,57.94
2023-03-05T20:51:46.863Z,58.04
2023-03-05T20:54:13.312Z,58.07
2023-03-05T20:56:39.718Z,57.84
2023-03-05T20:59:06.274Z,57.38
2023-03-05T21:01:32.710Z,57.16
2023-03-05T21:03:59.194Z,57.17
2023-03-05T21:06:25.600Z,56.87
2023-03-05T21:08:51.979Z,56.46
2023-03-05T21:11:18.479Z,56.50
2023-03-05T21:13:44.976Z,56.43
2023-03-05T21:16:11.404Z,56.20
2023-03-05T21:18:37.873Z,56.15
2023-03-05T21:21:04.257Z,55.63
2023-03-05T21:23:30.638Z,55.40
2023-03-05T21:25:57.037Z,55.30
2023-03-05T21:28:23.512Z,54.08
2023-03-05T21:30:49.918Z,54.20
2023-03-05T21:33:16.360Z,54.78
2023-03-05T21:35:42.783Z,54.33
2023-03-05T21:38:09.184Z,54.49
2023-03-05T21:40:35.589Z,54.54
2023-03-05T21:43:01.979Z,55.28
2023-03-05T21:45:28.451Z,55.94
2023-03-05T21:47:54.877Z,55.63
2023-03-05T21:50:21.318Z,56.13
2023-03-05T21:52:47.728Z,55.27
2023-03-05T21:55:14.220Z,55.04
2023-03-05T21:57:40.603Z,54.52
2023-03-05T22:00:07.007Z,55.27
2023-03-05T22:02:33.437Z,54.75
2023-03-05T22:05:00.843Z,54.90
2023-03-05T22:07:27.242Z,54.94
2023-03-05T22:09:53.624Z,55.12
2023-03-05T22:12:20.012Z,55.44
2023-03-05T22:14:46.408Z,55.80
2023-03-05T22:17:12.878Z,55.78
2023-03-05T22:19:39.280Z,55.47
2023-03-05T22:22:05.684Z,55.62
2023-03-05T22:24:32.131Z,55.44
2023-03-05T22:26:58.509Z,55.80
2023-03-05T22:29:25.687Z,56.28
2023-03-05T22:31:52.141Z,57.13
2023-03-05T22:34:18.548Z,58.18
2023-03-05T22:36:45.033Z,59.20
2023-03-05T22:39:11.459Z,58.78
2023-03-05T22:41:37.861Z,59.08
2023-03-05T22:44:05.325Z,60.69
2023-03-05T22:46:31.699Z,60.77
2023-03-05T22:48:58.116Z,60.65
2023-03-05T22:51:24.487Z,61.03
2023-03-05T22:53:51.006Z,61.20
2023-03-05T22:56:17.407Z,61.99
2023-03-05T22:58:43.887Z,61.10
2023-03-05T23:01:10.243Z,61.44
2023-03-05T23:03:36.692Z,61.17
2023-03-05T23:06:03.094Z,60.91
2023-03-05T23:08:29.498Z,60.98
2023-03-05T23:10:55.877Z,60.41
2023-03-05T23:13:22.287Z,60.54
2023-03-05T23:15:48.693Z,60.38
2023-03-05T23:18:15.104Z,59.96
2023-03-05T23:20:41.598Z,59.96
2023-03-05T23:23:07.966Z,59.77
2023-03-05T23:25:34.341Z,59.29
2023-03-05T23:28:00.782Z,60.81
2023-03-05T23:30:27.156Z,60.17
2023-03-05T23:32:53.531Z,59.98
2023-03-05T23:35:19.943Z,59.92
2023-03-05T23:37:46.336Z,60.01
2023-03-05T23:40:12.774Z,60.36
2023-03-05T23:42:39.163Z,60.40
2023-03-05T23:45:05.549Z,60.46
2023-03-05T23:47:31.933Z,60.16
2023-03-05T23:49:59.334Z,60.54
2023-03-05T23:52:25.702Z,60.62
2023-03-05T23:54:52.142Z,60.72
2023-03-05T23:57:18.521Z,60.71
2023-03-05T23:59:44.959Z,61.03
